Time;durP1;ratioP1;P1;durP2;ratioP2;P2;SDS_P1;SDS_P2;PMS_P1;PMS_P2;Temp;Humidity;BMP_temperature;BMP_pressure;BME280_temperature;BME280_humidity;BME280_pressure;Samples;Min_cycle;Max_cycle;Signal;HPM_P1;HPM_P2
2024/01/03 00:00:23;;;;;;;28.83;4.50;;;8.40;99.90;;;;;;5070346;28;20060;-69
2024/01/03 00:02:49;;;;;;;33.80;5.60;;;8.20;99.90;;;;;;5069745;28;20047;-68
2024/01/03 00:05:18;;;;;;;20.70;3.80;;;8.20;99.90;;;;;;5069319;28;20067;-69
2024/01/03 00:07:43;;;;;;;20.30;3.55;;;8.20;99.90;;;;;;5070245;28;20048;-69
2024/01/03 00:10:40;;;;;;;20.83;4.03;;;8.20;99.90;;;;;;5071089;28;20044;-69
2024/01/03 00:13:37;;;;;;;25.05;4.30;;;8.10;99.90;;;;;;5070332;28;20129;-68
2024/01/03 00:16:18;;;;;;;23.83;4.15;;;8.10;99.90;;;;;;5049552;28;20378;-68
2024/01/03 00:18:58;;;;;;;23.48;5.03;;;8.10;99.90;;;;;;5066691;28;20510;-68
2024/01/03 00:21:30;;;;;;;22.48;3.05;;;8.20;99.90;;;;;;5070936;28;20102;-68
2024/01/03 00:24:03;;;;;;;31.83;4.45;;;8.30;99.90;;;;;;5072529;28;20575;-68
2024/01/03 00:26:30;;;;;;;20.17;3.97;;;8.30;99.90;;;;;;5070776;28;20052;-68
2024/01/03 00:28:59;;;;;;;20.70;4.32;;;8.10;99.90;;;;;;5070914;28;20045;-69
2024/01/03 00:31:41;;;;;;;18.67;3.40;;;8.10;99.90;;;;;;5071006;28;20033;-68
2024/01/03 00:34:28;;;;;;;21.45;3.35;;;8.10;99.90;;;;;;5070484;28;20048;-69
2024/01/03 00:36:55;;;;;;;14.88;3.10;;;8.10;99.90;;;;;;5071283;28;20468;-68
2024/01/03 00:39:36;;;;;;;16.90;3.65;;;8.20;99.90;;;;;;5071054;28;20068;-68
2024/01/03 00:42:02;;;;;;;14.55;3.17;;;8.10;99.90;;;;;;5070041;28;20110;-69
2024/01/03 00:44:28;;;;;;;15.65;2.80;;;8.10;99.90;;;;;;5070854;28;20048;-69
2024/01/03 00:46:56;;;;;;;16.27;2.80;;;8.10;99.90;;;;;;5070866;28;20059;-69
2024/01/03 00:49:23;;;;;;;13.38;3.22;;;8.60;99.90;;;;;;5069472;28;20097;-69
2024/01/03 00:51:49;;;;;;;19.40;3.75;;;8.20;99.90;;;;;;5070785;28;20059;-69
2024/01/03 00:54:17;;;;;;;24.42;3.13;;;8.20;99.90;;;;;;5070032;28;20388;-69
2024/01/03 00:56:45;;;;;;;21.58;3.30;;;8.20;99.90;;;;;;5070865;28;20055;-68
2024/01/03 00:59:11;;;;;;;18.67;4.13;;;8.30;99.90;;;;;;5071658;28;20047;-69
2024/01/03 01:01:37;;;;;;;22.50;3.95;;;8.30;99.90;;;;;;5070391;28;20501;-69
2024/01/03 01:04:03;;;;;;;17.20;3.50;;;8.30;99.90;;;;;;5070581;28;20182;-69
2024/01/03 01:06:29;;;;;;;19.05;4.10;;;8.30;99.90;;;;;;5070798;28;20410;-68
2024/01/03 01:08:55;;;;;;;18.70;3.10;;;8.30;99.90;;;;;;5069808;28;20052;-69
2024/01/03 01:11:28;;;;;;;28.35;4.13;;;8.40;99.90;;;;;;5070357;28;20122;-68
2024/01/03 01:13:54;;;;;;;20.50;4.75;;;8.80;99.90;;;;;;5072993;28;20044;-68
2024/01/03 01:16:22;;;;;;;19.48;4.55;;;8.50;99.90;;;;;;5073360;28;20045;-69
2024/01/03 01:18:48;;;;;;;11.68;3.58;;;8.30;99.90;;;;;;5074378;28;20118;-69
2024/01/03 01:21:13;;;;;;;17.73;3.25;;;8.30;99.90;;;;;;5074110;28;20096;-69
2024/01/03 01:23:42;;;;;;;18.52;3.60;;;8.80;99.90;;;;;;5073396;28;20041;-69
2024/01/03 01:26:08;;;;;;;10.73;2.75;;;8.30;99.90;;;;;;5074054;28;20044;-69
2024/01/03 01:28:34;;;;;;;15.13;3.33;;;8.60;99.90;;;;;;5073941;28;20033;-68
2024/01/03 01:31:03;;;;;;;23.10;2.97;;;8.40;99.90;;;;;;5073135;28;20052;-68
2024/01/03 01:33:28;;;;;;;13.02;2.90;;;8.40;99.90;;;;;;5073995;28;20438;-69
2024/01/03 01:35:54;;;;;;;12.95;2.90;;;8.60;99.90;;;;;;5074169;28;20041;-68
2024/01/03 01:38:22;;;;;;;15.02;2.83;;;8.60;99.90;;;;;;5072877;28;20048;-68
2024/01/03 01:40:49;;;;;;;15.82;2.92;;;8.40;99.90;;;;;;5074188;28;20553;-69
2024/01/03 01:43:15;;;;;;;12.98;2.72;;;8.40;99.90;;;;;;5074970;28;20048;-68
2024/01/03 01:45:41;;;;;;;12.65;3.13;;;8.40;99.90;;;;;;5073496;28;20044;-68
2024/01/03 01:48:10;;;;;;;20.13;3.83;;;8.40;99.90;;;;;;5073114;28;20516;-69
2024/01/03 01:50:39;;;;;;;12.90;2.30;;;8.70;99.90;;;;;;5074141;28;20385;-69
2024/01/03 01:53:06;;;;;;;10.88;2.60;;;8.60;99.90;;;;;;5073549;28;20051;-68
2024/01/03 01:55:40;;;;;;;21.45;4.07;;;8.50;99.90;;;;;;5075075;28;20037;-69
2024/01/03 01:58:07;;;;;;;12.50;2.60;;;8.40;99.90;;;;;;5097138;28;20111;-68
2024/01/03 02:00:33;;;;;;;18.63;3.05;;;8.60;99.90;;;;;;5087221;28;20440;-69
2024/01/03 02:02:59;;;;;;;16.30;3.03;;;8.50;99.90;;;;;;5087008;28;20404;-70
2024/01/03 02:05:25;;;;;;;16.95;2.58;;;8.60;99.90;;;;;;5053092;28;20040;-70
2024/01/03 02:07:51;;;;;;;13.25;2.80;;;8.50;99.90;;;;;;5086977;28;20095;-67
2024/01/03 02:10:17;;;;;;;18.42;2.92;;;8.90;99.90;;;;;;5053543;28;20033;-68
2024/01/03 02:12:42;;;;;;;11.77;2.63;;;8.50;99.90;;;;;;5086100;28;20045;-67
2024/01/03 02:15:08;;;;;;;15.10;2.40;;;8.70;99.90;;;;;;5086211;28;20080;-68
2024/01/03 02:17:39;;;;;;;13.93;2.47;;;8.50;99.90;;;;;;5086864;28;20049;-67
2024/01/03 02:20:05;;;;;;;17.77;3.10;;;8.60;99.90;;;;;;5052693;28;20053;-67
2024/01/03 02:22:31;;;;;;;15.23;2.70;;;8.60;99.90;;;;;;5053164;28;20049;-68
2024/01/03 02:24:57;;;;;;;19.83;3.08;;;8.70;99.90;;;;;;5052520;28;20045;-68
2024/01/03 02:27:22;;;;;;;14.32;2.42;;;8.80;99.90;;;;;;5085510;28;20029;-68
2024/01/03 02:29:48;;;;;;;11.90;2.50;;;8.50;99.90;;;;;;5086609;28;20049;-68
2024/01/03 02:32:13;;;;;;;19.20;2.80;;;8.60;99.90;;;;;;5086595;28;20204;-67
2024/01/03 02:34:39;;;;;;;12.93;2.85;;;8.60;99.90;;;;;;5085649;28;20049;-67
2024/01/03 02:37:08;;;;;;;13.02;2.38;;;9.00;99.90;;;;;;5087664;28;20056;-67
2024/01/03 02:39:33;;;;;;;13.25;2.75;;;8.60;99.90;;;;;;5052827;28;20059;-67
2024/01/03 02:41:59;;;;;;;8.50;2.40;;;8.70;99.90;;;;;;5085173;28;20062;-68
2024/01/03 02:44:28;;;;;;;;;;;8.60;99.90;;;;;;5058774;28;20047;-67
2024/01/03 02:46:56;;;;;;;16.05;3.03;;;8.60;99.90;;;;;;5071774;28;20337;-68
2024/01/03 02:49:21;;;;;;;13.57;3.28;;;8.60;99.90;;;;;;5072759;28;20111;-68
2024/01/03 02:51:47;;;;;;;19.48;3.15;;;8.60;99.90;;;;;;5072472;28;20093;-68
2024/01/03 02:54:12;;;;;;;15.07;2.95;;;8.60;99.90;;;;;;5071049;28;20032;-68
2024/01/03 02:56:39;;;;;;;10.23;2.30;;;8.70;99.90;;;;;;5073903;28;20048;-68
2024/01/03 02:59:05;;;;;;;14.75;2.30;;;8.80;99.90;;;;;;5072084;28;20150;-68
2024/01/03 03:01:31;;;;;;;13.00;2.25;;;8.80;99.90;;;;;;5071509;28;20086;-68
2024/01/03 03:03:56;;;;;;;11.23;2.20;;;8.70;99.90;;;;;;5072902;28;20048;-68
2024/01/03 03:06:22;;;;;;;10.70;2.65;;;9.10;99.90;;;;;;5071709;28;20044;-68
2024/01/03 03:08:48;;;;;;;;;;;8.50;99.90;;;;;;5071944;28;20052;-68
2024/01/03 03:11:13;;;;;;;8.93;1.77;;;8.60;99.90;;;;;;5072281;28;20295;-68
2024/01/03 03:13:39;;;;;;;10.88;1.77;;;8.60;99.90;;;;;;5073407;28;20133;-68
2024/01/03 03:16:07;;;;;;;15.55;1.85;;;8.60;99.90;;;;;;5071085;28;20075;-68
2024/01/03 03:18:33;;;;;;;19.27;2.25;;;8.80;99.90;;;;;;5071870;28;20048;-68
2024/01/03 03:21:00;;;;;;;14.27;2.40;;;8.80;99.90;;;;;;5072191;28;20071;-68
2024/01/03 03:23:26;;;;;;;14.00;2.30;;;9.10;99.90;;;;;;5071337;28;20048;-68
2024/01/03 03:25:51;;;;;;;10.07;2.15;;;8.60;99.90;;;;;;5071899;28;20055;-68
2024/01/03 03:28:18;;;;;;;14.45;2.50;;;8.60;99.90;;;;;;5071632;28;20188;-68
2024/01/03 03:30:43;;;;;;;13.40;2.70;;;8.70;99.90;;;;;;5071186;28;20086;-67
2024/01/03 03:33:09;;;;;;;12.10;2.33;;;8.80;99.90;;;;;;5070869;28;20087;-68
2024/01/03 03:35:35;;;;;;;14.43;2.80;;;8.60;99.90;;;;;;5071570;28;20059;-68
2024/01/03 03:38:00;;;;;;;9.00;2.28;;;8.70;99.90;;;;;;5070702;28;20043;-68
2024/01/03 03:40:26;;;;;;;9.48;2.35;;;8.80;99.90;;;;;;5073028;28;20447;-68
2024/01/03 03:42:51;;;;;;;9.40;2.58;;;8.70;99.90;;;;;;5071476;28;20041;-68
2024/01/03 03:45:17;;;;;;;;;;;9.00;99.90;;;;;;5070942;28;20076;-68
2024/01/03 03:47:43;;;;;;;13.35;3.08;;;8.70;99.90;;;;;;5071516;28;19920;-68
2024/01/03 03:50:08;;;;;;;12.38;2.38;;;8.60;99.90;;;;;;5070738;28;20484;-67
2024/01/03 03:52:35;;;;;;;9.38;2.05;;;8.70;99.90;;;;;;5071467;28;20119;-68
2024/01/03 03:55:01;;;;;;;16.98;2.83;;;8.90;99.90;;;;;;5071193;28;20083;-68
2024/01/03 03:57:26;;;;;;;12.65;2.55;;;8.70;99.90;;;;;;5070843;28;20469;-68
2024/01/03 03:59:52;;;;;;;12.43;2.88;;;8.60;99.90;;;;;;5071746;28;20036;-68
2024/01/03 04:02:18;;;;;;;12.98;1.88;;;9.30;99.90;;;;;;5072252;28;20820;-68
2024/01/03 04:04:43;;;;;;;7.88;1.95;;;8.70;99.90;;;;;;5070773;28;20040;-68
2024/01/03 04:07:09;;;;;;;11.82;2.03;;;8.60;99.90;;;;;;5071040;28;20377;-68
2024/01/03 04:09:35;;;;;;;14.43;2.65;;;8.50;99.90;;;;;;5071719;28;20503;-67
2024/01/03 04:12:01;;;;;;;11.52;2.10;;;8.50;99.90;;;;;;5070080;28;20106;-67
2024/01/03 04:14:26;;;;;;;14.45;2.55;;;8.50;99.90;;;;;;5071241;28;20476;-67
2024/01/03 04:16:52;;;;;;;13.00;2.90;;;8.50;99.90;;;;;;5072457;28;20369;-67
2024/01/03 04:19:20;;;;;;;19.40;2.80;;;8.60;99.90;;;;;;5070449;28;20487;-68
2024/01/03 04:21:46;;;;;;;8.02;2.10;;;8.60;99.90;;;;;;5071357;28;20048;-67
2024/01/03 04:24:11;;;;;;;8.75;2.10;;;8.50;99.90;;;;;;5070949;28;20094;-68
2024/01/03 04:26:37;;;;;;;13.93;2.33;;;9.00;99.90;;;;;;5070144;28;20057;-68
2024/01/03 04:29:03;;;;;;;7.25;2.03;;;8.70;99.90;;;;;;5071244;28;20048;-68
2024/01/03 04:31:28;;;;;;;11.10;2.30;;;8.50;99.90;;;;;;5071167;28;20400;-68
2024/01/03 04:33:54;;;;;;;16.92;2.47;;;8.60;99.90;;;;;;5070594;28;20045;-67
2024/01/03 04:36:19;;;;;;;11.43;2.15;;;8.60;99.90;;;;;;5070736;28;20480;-67
2024/01/03 04:38:45;;;;;;;12.68;2.53;;;8.50;99.90;;;;;;5071087;28;20076;-68
2024/01/03 04:41:11;;;;;;;16.08;3.83;;;8.50;99.90;;;;;;5070030;28;20043;-68
2024/01/03 04:43:36;;;;;;;14.02;3.63;;;8.50;99.90;;;;;;5070527;28;20048;-68
2024/01/03 04:46:05;;;;;;;13.80;2.90;;;8.50;99.90;;;;;;5070938;28;20059;-68
2024/01/03 04:48:30;;;;;;;12.77;2.30;;;8.60;99.90;;;;;;5106156;28;20102;-68
2024/01/03 04:50:56;;;;;;;14.65;2.45;;;8.60;99.90;;;;;;5075109;28;20053;-67
2024/01/03 04:53:22;;;;;;;12.45;2.13;;;8.60;99.90;;;;;;5107424;28;20480;-68
2024/01/03 04:55:47;;;;;;;14.80;2.40;;;8.60;99.90;;;;;;5074765;28;20055;-68
2024/01/03 04:58:13;;;;;;;15.68;2.50;;;8.60;99.90;;;;;;5074660;28;20131;-68
2024/01/03 05:00:39;;;;;;;11.73;2.42;;;8.60;99.90;;;;;;5074336;28;20053;-68
2024/01/03 05:03:04;;;;;;;13.10;2.33;;;8.60;99.90;;;;;;5074236;28;20048;-68
2024/01/03 05:05:30;;;;;;;12.35;2.92;;;8.60;99.90;;;;;;5074605;28;20044;-68
2024/01/03 05:07:56;;;;;;;15.30;2.95;;;8.60;99.90;;;;;;5108136;28;20041;-68
2024/01/03 05:10:21;;;;;;;17.00;3.53;;;8.70;99.90;;;;;;5074024;28;20044;-68
2024/01/03 05:12:47;;;;;;;16.70;3.17;;;9.00;99.90;;;;;;5074393;28;20091;-68
2024/01/03 05:15:13;;;;;;;13.35;2.92;;;8.70;99.90;;;;;;5073648;28;20461;-68
2024/01/03 05:17:39;;;;;;;10.90;2.75;;;8.80;99.90;;;;;;5074575;28;20135;-68
2024/01/03 05:20:05;;;;;;;7.88;1.83;;;8.80;99.90;;;;;;5073902;28;20040;-68
2024/01/03 05:22:32;;;;;;;15.45;2.33;;;8.50;99.90;;;;;;5073552;28;20097;-68
2024/01/03 05:24:58;;;;;;;11.80;1.98;;;8.50;99.90;;;;;;5074564;28;20138;-68
2024/01/03 05:27:23;;;;;;;12.13;2.08;;;9.10;99.90;;;;;;5074253;28;20053;-67
2024/01/03 05:29:49;;;;;;;9.95;2.03;;;8.40;99.90;;;;;;5073443;28;20040;-68
2024/01/03 05:32:15;;;;;;;12.10;2.58;;;8.40;99.90;;;;;;5073862;28;20062;-68
2024/01/03 05:34:41;;;;;;;14.00;2.75;;;8.50;99.90;;;;;;5073987;28;20044;-68
2024/01/03 05:37:07;;;;;;;15.63;3.30;;;8.40;99.90;;;;;;5073121;28;20056;-68
2024/01/03 05:39:32;;;;;;;16.75;3.25;;;8.40;99.90;;;;;;5073966;28;20426;-68
2024/01/03 05:41:58;;;;;;;18.10;3.50;;;8.40;99.90;;;;;;5074326;28;20174;-68
2024/01/03 05:44:24;;;;;;;19.70;3.65;;;8.50;99.90;;;;;;5073430;28;20507;-68
2024/01/03 05:46:49;;;;;;;13.85;3.10;;;9.00;99.90;;;;;;5073178;28;20046;-68
2024/01/03 05:49:15;;;;;;;17.92;3.47;;;8.40;99.90;;;;;;5073397;28;20060;-68
2024/01/03 05:51:41;;;;;;;15.35;3.05;;;8.50;99.90;;;;;;5074268;28;20403;-68
2024/01/03 05:54:06;;;;;;;14.68;3.20;;;8.50;99.90;;;;;;5073831;28;20052;-68
2024/01/03 05:56:32;;;;;;;25.38;3.55;;;8.50;99.90;;;;;;5073356;28;20174;-69
2024/01/03 05:58:57;;;;;;;15.63;2.50;;;8.60;99.90;;;;;;5072321;28;20604;-68
2024/01/03 06:01:23;;;;;;;17.80;3.33;;;8.60;99.90;;;;;;5072993;28;20040;-68
2024/01/03 06:03:49;;;;;;;22.27;3.72;;;8.60;99.90;;;;;;5073115;28;20121;-69
2024/01/03 06:06:16;;;;;;;18.88;3.92;;;8.60;99.90;;;;;;5072956;28;20052;-68
2024/01/03 06:08:41;;;;;;;24.02;4.18;;;8.60;99.90;;;;;;5073564;28;20509;-68
2024/01/03 06:11:10;;;;;;;24.00;3.55;;;8.60;99.90;;;;;;5072461;28;20131;-68
2024/01/03 06:13:36;;;;;;;18.90;3.28;;;8.80;99.90;;;;;;5074763;28;20492;-68
2024/01/03 06:16:01;;;;;;;19.40;3.40;;;8.50;99.90;;;;;;5072795;28;20139;-68
2024/01/03 06:18:27;;;;;;;19.45;3.60;;;9.10;99.90;;;;;;5072521;28;20079;-68
2024/01/03 06:20:52;;;;;;;18.27;3.80;;;8.50;99.90;;;;;;5073100;28;20040;-68
2024/01/03 06:23:18;;;;;;;19.48;4.38;;;8.60;99.90;;;;;;5073186;28;20084;-68
2024/01/03 06:25:44;;;;;;;23.15;3.05;;;8.60;99.90;;;;;;5072695;28;20039;-68
2024/01/03 06:28:09;;;;;;;23.30;3.83;;;8.60;99.90;;;;;;5091339;28;20086;-68
2024/01/03 06:30:35;;;;;;;20.25;3.97;;;9.00;99.90;;;;;;5086530;28;20100;-68
2024/01/03 06:33:05;;;;;;;20.00;4.28;;;8.80;99.90;;;;;;5052024;28;20049;-68
2024/01/03 06:35:32;;;;;;;22.00;4.15;;;8.70;99.90;;;;;;5086447;28;20079;-68
2024/01/03 06:37:58;;;;;;;14.15;3.20;;;8.70;99.90;;;;;;5086488;28;20056;-68
2024/01/03 06:40:23;;;;;;;16.42;3.22;;;8.70;99.90;;;;;;5085555;28;20643;-69
2024/01/03 06:42:49;;;;;;;19.90;4.10;;;8.70;99.90;;;;;;5063792;28;20123;-68
2024/01/03 06:45:17;;;;;;;20.35;3.85;;;9.00;99.90;;;;;;5072330;28;20231;-68
2024/01/03 06:47:42;;;;;;;15.57;2.88;;;9.10;99.90;;;;;;5071960;28;20056;-69
2024/01/03 06:50:08;;;;;;;12.73;3.38;;;8.80;99.90;;;;;;5072695;28;20132;-68
2024/01/03 06:52:34;;;;;;;26.88;3.78;;;8.90;99.90;;;;;;5072860;28;20508;-68
2024/01/03 06:55:00;;;;;;;16.50;3.08;;;8.80;99.90;;;;;;5071643;28;20033;-68
2024/01/03 06:57:25;;;;;;;21.90;3.72;;;8.70;99.90;;;;;;5072118;28;20044;-68
2024/01/03 06:59:51;;;;;;;17.88;3.00;;;8.70;99.90;;;;;;5072220;28;20127;-68
2024/01/03 07:02:16;;;;;;;18.70;3.33;;;8.70;99.90;;;;;;5071546;28;20117;-68
2024/01/03 07:04:42;;;;;;;20.50;3.80;;;8.70;99.90;;;;;;5072498;28;20083;-68
2024/01/03 07:07:08;;;;;;;21.92;3.90;;;8.70;99.90;;;;;;5070950;28;20040;-68
2024/01/03 07:09:33;;;;;;;24.45;3.83;;;8.60;99.90;;;;;;5073775;28;20048;-68
2024/01/03 07:11:59;;;;;;;16.60;3.10;;;8.70;99.90;;;;;;5071616;28;20044;-68
2024/01/03 07:14:25;;;;;;;27.02;3.35;;;8.70;99.90;;;;;;5071397;28;20090;-69
2024/01/03 07:16:51;;;;;;;21.02;3.30;;;8.70;99.90;;;;;;5073086;28;20040;-68
2024/01/03 07:19:16;;;;;;;22.42;3.70;;;8.80;99.90;;;;;;5071637;28;20546;-68
2024/01/03 07:21:42;;;;;;;20.27;3.42;;;9.00;99.90;;;;;;5071289;28;20061;-68
2024/01/03 07:24:07;;;;;;;16.95;3.03;;;8.80;99.90;;;;;;5071331;28;20481;-68
2024/01/03 07:26:33;;;;;;;17.88;3.30;;;8.80;99.90;;;;;;5071547;28;20059;-68
2024/01/03 07:28:58;;;;;;;19.15;2.80;;;8.70;99.90;;;;;;5071136;28;20045;-68
2024/01/03 07:31:24;;;;;;;18.17;3.92;;;8.80;99.90;;;;;;5071929;28;20048;-68
2024/01/03 07:33:50;;;;;;;13.73;2.85;;;9.10;99.90;;;;;;5071840;28;20040;-68
2024/01/03 07:36:15;;;;;;;18.00;3.47;;;8.70;99.90;;;;;;5070086;28;20110;-68
2024/01/03 07:38:44;;;;;;;16.13;3.08;;;8.70;99.90;;;;;;5071937;28;20044;-68
2024/01/03 07:41:10;;;;;;;17.73;2.85;;;8.70;99.90;;;;;;5071403;28;20044;-68
2024/01/03 07:43:36;;;;;;;18.38;3.60;;;8.70;99.90;;;;;;5105082;28;20113;-68
2024/01/03 07:46:01;;;;;;;18.25;3.50;;;8.70;99.90;;;;;;5071598;28;20074;-68
2024/01/03 07:48:27;;;;;;;15.43;3.08;;;8.70;99.90;;;;;;5071521;28;20495;-68
2024/01/03 07:50:53;;;;;;;18.20;3.30;;;8.70;99.90;;;;;;5071375;28;20044;-68
2024/01/03 07:53:18;;;;;;;12.30;2.85;;;9.10;99.90;;;;;;5070938;28;20074;-68
2024/01/03 07:55:44;;;;;;;21.35;3.22;;;8.70;99.90;;;;;;5071594;28;20048;-68
2024/01/03 07:58:10;;;;;;;13.40;3.40;;;8.60;99.90;;;;;;5070429;28;20040;-68
2024/01/03 08:00:41;;;;;;;14.10;2.75;;;8.80;99.90;;;;;;5071379;28;20127;-68
2024/01/03 08:03:07;;;;;;;16.52;2.92;;;8.70;99.90;;;;;;5071061;28;20139;-68
2024/01/03 08:05:33;;;;;;;14.57;2.55;;;8.70;99.90;;;;;;5070570;28;20555;-68
2024/01/03 08:07:58;;;;;;;11.48;2.45;;;8.90;99.90;;;;;;5071000;28;20090;-68
2024/01/03 08:10:24;;;;;;;13.18;2.80;;;8.90;99.90;;;;;;5071005;28;20052;-68
2024/01/03 08:12:49;;;;;;;6.72;1.90;;;9.00;99.90;;;;;;5071062;28;20480;-68
2024/01/03 08:15:15;;;;;;;6.35;2.00;;;8.60;99.90;;;;;;5071196;28;20055;-68
2024/01/03 08:17:41;;;;;;;9.68;2.42;;;8.60;99.90;;;;;;5070336;28;20048;-68
2024/01/03 08:20:08;;;;;;;10.30;2.53;;;8.60;99.90;;;;;;5070911;28;20045;-68
2024/01/03 08:22:34;;;;;;;14.20;2.38;;;8.50;99.90;;;;;;5070120;28;20097;-68
2024/01/03 08:24:59;;;;;;;15.88;3.17;;;8.50;99.90;;;;;;5070519;28;20437;-68
2024/01/03 08:27:25;;;;;;;12.32;2.92;;;8.50;99.90;;;;;;5070222;28;20041;-68
2024/01/03 08:29:51;;;;;;;18.05;2.83;;;8.50;99.90;;;;;;5069447;28;20045;-68
2024/01/03 08:32:16;;;;;;;16.23;3.05;;;8.60;99.90;;;;;;5068770;28;20123;-68
2024/01/03 08:34:45;;;;;;;18.63;2.95;;;9.00;99.90;;;;;;5070976;28;20076;-69
2024/01/03 08:37:11;;;;;;;12.20;2.58;;;8.70;99.90;;;;;;5069190;28;20075;-68
2024/01/03 08:39:36;;;;;;;12.90;3.10;;;8.70;99.90;;;;;;5068829;28;20567;-68
2024/01/03 08:42:02;;;;;;;16.10;3.20;;;8.70;99.90;;;;;;5069566;28;20174;-69
2024/01/03 08:44:28;;;;;;;20.20;3.22;;;8.70;99.90;;;;;;5070759;28;20407;-68
2024/01/03 08:46:54;;;;;;;17.85;3.20;;;8.80;99.90;;;;;;5068551;28;20059;-68
2024/01/03 08:49:19;;;;;;;15.27;2.95;;;8.90;99.90;;;;;;5068622;28;20044;-68
2024/01/03 08:51:48;;;;;;;16.10;2.75;;;8.70;99.90;;;;;;5070303;28;20072;-67
2024/01/03 08:54:17;;;;;;;16.65;3.17;;;8.70;99.90;;;;;;5067756;28;20028;-68
2024/01/03 08:56:42;;;;;;;15.60;2.85;;;8.70;99.90;;;;;;5067083;28;20049;-68
2024/01/03 08:59:09;;;;;;;11.27;2.75;;;8.80;99.90;;;;;;5068413;28;20075;-68
2024/01/03 09:01:34;;;;;;;14.45;2.83;;;8.90;99.90;;;;;;5067424;28;20051;-68
2024/01/03 09:04:01;;;;;;;18.00;2.88;;;8.70;99.90;;;;;;5068950;28;20675;-68
2024/01/03 09:06:32;;;;;;;15.38;2.72;;;8.60;99.90;;;;;;5070233;28;20099;-68
2024/01/03 09:08:58;;;;;;;14.07;2.55;;;8.60;99.90;;;;;;5069566;28;20480;-68
2024/01/03 09:11:25;;;;;;;20.17;3.53;;;8.70;99.90;;;;;;5069505;28;20098;-68
2024/01/03 09:13:51;;;;;;;19.67;3.42;;;8.70;99.90;;;;;;5070911;28;20566;-67
2024/01/03 09:16:19;;;;;;;17.48;3.33;;;8.70;99.90;;;;;;5069502;28;20144;-69
2024/01/03 09:18:46;;;;;;;16.48;3.10;;;8.80;99.90;;;;;;5069602;28;20045;-68
2024/01/03 09:21:12;;;;;;;24.83;3.85;;;8.80;99.90;;;;;;5069537;28;20043;-68
2024/01/03 09:23:38;;;;;;;12.60;2.47;;;9.00;99.90;;;;;;5069916;28;20052;-68
2024/01/03 09:26:04;;;;;;;14.00;2.90;;;8.90;99.90;;;;;;5069818;28;20044;-68
2024/01/03 09:28:31;;;;;;;10.43;2.00;;;8.90;99.90;;;;;;5069930;28;20071;-71
2024/01/03 09:30:56;;;;;;;9.95;2.20;;;8.80;99.90;;;;;;5070208;28;20045;-70
2024/01/03 09:33:23;;;;;;;16.50;2.80;;;8.80;99.90;;;;;;5070105;28;20039;-69
2024/01/03 09:35:49;;;;;;;14.02;2.47;;;8.80;99.90;;;;;;5073282;28;20056;-73
2024/01/03 09:38:15;;;;;;;9.15;2.50;;;8.90;99.90;;;;;;5073592;28;20044;-71
2024/01/03 09:40:41;;;;;;;16.02;2.42;;;9.00;99.90;;;;;;5073972;28;20040;-71
2024/01/03 09:43:13;;;;;;;16.08;3.78;;;8.90;99.90;;;;;;5072740;28;20040;-71
2024/01/03 09:45:39;;;;;;;20.52;3.15;;;9.00;99.90;;;;;;5089326;28;20056;-70
2024/01/03 09:48:06;;;;;;;8.85;1.90;;;9.30;99.90;;;;;;5087087;28;20140;-71
2024/01/03 09:50:32;;;;;;;15.73;2.70;;;8.90;99.90;;;;;;5053241;28;20072;-72
2024/01/03 09:52:58;;;;;;;17.50;2.83;;;8.90;99.90;;;;;;5054060;28;20974;-71
2024/01/03 09:55:27;;;;;;;22.73;3.33;;;8.90;99.90;;;;;;5087145;28;20549;-72
2024/01/03 09:57:54;;;;;;;14.90;2.67;;;9.30;99.90;;;;;;5072528;28;20080;-72
2024/01/03 10:00:20;;;;;;;15.05;2.92;;;9.20;99.90;;;;;;5073517;28;20076;-68
2024/01/03 10:02:47;;;;;;;12.25;2.28;;;9.10;99.90;;;;;;5074090;28;20068;-71
2024/01/03 10:05:25;;;;;;;10.05;2.25;;;8.90;99.90;;;;;;5073002;28;20048;-72
2024/01/03 10:07:50;;;;;;;14.30;2.45;;;9.00;99.90;;;;;;5073545;28;20044;-72
2024/01/03 10:10:32;;;;;;;13.25;2.53;;;9.10;99.90;;;;;;5072415;28;20446;-73
2024/01/03 10:13:15;;;;;;;12.35;2.45;;;9.20;99.90;;;;;;5072719;28;20108;-73
2024/01/03 10:15:44;;;;;;;14.25;2.17;;;9.70;99.90;;;;;;5073474;28;20131;-72
2024/01/03 10:18:10;;;;;;;12.77;2.38;;;10.90;99.90;;;;;;5071780;28;20098;-70
2024/01/03 10:20:35;;;;;;;14.70;2.60;;;12.10;99.90;;;;;;5073356;28;20519;-69
2024/01/03 10:23:11;;;;;;;12.40;2.13;;;12.00;99.90;;;;;;5071235;28;20036;-70
2024/01/03 10:25:44;;;;;;;20.58;3.13;;;11.60;99.90;;;;;;5072130;28;20534;-68
2024/01/03 10:28:17;;;;;;;15.07;2.95;;;11.00;99.90;;;;;;5065233;28;20037;-68
2024/01/03 10:30:43;;;;;;;13.80;2.80;;;10.70;99.90;;;;;;5072339;28;20107;-71
2024/01/03 10:33:10;;;;;;;19.08;2.85;;;10.50;99.90;;;;;;5072383;28;20052;-70
2024/01/03 10:35:37;;;;;;;11.95;2.53;;;10.40;99.90;;;;;;5070840;28;20131;-69
2024/01/03 10:38:04;;;;;;;18.17;3.85;;;10.30;99.90;;;;;;5069054;28;20480;-70
2024/01/03 10:40:34;;;;;;;15.10;2.55;;;10.00;99.90;;;;;;5070201;28;20051;-69
2024/01/03 10:43:01;;;;;;;14.73;2.63;;;10.00;99.90;;;;;;5069921;28;20740;-71
2024/01/03 10:45:27;;;;;;;16.10;2.35;;;10.10;99.90;;;;;;5068515;28;20040;-70
2024/01/03 10:47:53;;;;;;;13.85;3.63;;;10.10;99.90;;;;;;5069135;28;20127;-70
2024/01/03 10:50:20;;;;;;;15.13;3.22;;;9.90;99.90;;;;;;5070098;28;20492;-71
2024/01/03 10:52:46;;;;;;;13.10;2.53;;;9.90;99.90;;;;;;5071046;28;20478;-72
2024/01/03 10:55:20;;;;;;;16.67;2.75;;;9.80;99.90;;;;;;5071709;28;20037;-71
2024/01/03 10:58:20;;;;;;;10.30;2.38;;;10.00;99.90;;;;;;5070703;28;20039;-69
2024/01/03 11:00:59;;;;;;;14.43;3.10;;;9.90;99.90;;;;;;5068251;28;20063;-68
2024/01/03 11:03:48;;;;;;;12.20;2.33;;;9.90;99.90;;;;;;5092478;28;20125;-70
2024/01/03 11:07:05;;;;;;;11.50;2.65;;;10.10;99.90;;;;;;5068145;28;20504;-71
2024/01/03 11:09:31;;;;;;;17.40;2.83;;;9.90;99.90;;;;;;5076124;28;20140;-69
2024/01/03 11:12:09;;;;;;;19.13;3.15;;;9.90;99.90;;;;;;5069550;28;20666;-67
2024/01/03 11:14:35;;;;;;;11.90;2.45;;;9.90;99.90;;;;;;5066004;28;20032;-68
2024/01/03 11:17:06;;;;;;;11.75;2.40;;;9.90;99.90;;;;;;5066048;28;20044;-68
2024/01/03 11:19:32;;;;;;;12.40;2.88;;;9.90;99.90;;;;;;5069552;28;20049;-69
2024/01/03 11:22:05;;;;;;;11.73;2.13;;;10.00;99.90;;;;;;5069026;28;20072;-68
2024/01/03 11:24:30;;;;;;;16.17;2.63;;;10.30;99.90;;;;;;5069660;28;20032;-69
2024/01/03 11:26:56;;;;;;;18.20;2.53;;;10.10;99.90;;;;;;5069089;28;20109;-70
2024/01/03 11:29:45;;;;;;;17.58;3.22;;;10.30;99.90;;;;;;5068367;28;20044;-77
2024/01/03 11:32:30;;;;;;;12.45;2.85;;;10.60;99.90;;;;;;5067144;28;20071;-69
2024/01/03 11:34:57;;;;;;;15.70;2.78;;;10.60;99.90;;;;;;5068335;28;20036;-69
2024/01/03 11:37:22;;;;;;;15.65;2.90;;;10.50;99.90;;;;;;5068486;28;20045;-69
2024/01/03 11:39:50;;;;;;;14.30;2.28;;;10.40;99.90;;;;;;5070421;28;20131;-68
2024/01/03 11:42:37;;;;;;;17.77;2.83;;;10.20;99.90;;;;;;5068307;28;20090;-71
2024/01/03 11:45:06;;;;;;;14.20;3.33;;;10.20;99.90;;;;;;5070568;28;20062;-71
2024/01/03 11:47:43;;;;;;;16.92;3.20;;;10.20;99.90;;;;;;5069944;28;20045;-72
2024/01/03 11:50:12;;;;;;;14.68;3.63;;;10.10;99.90;;;;;;5070231;28;20056;-70
2024/01/03 11:52:48;;;;;;;14.57;3.00;;;10.00;99.90;;;;;;5070310;28;20487;-71
2024/01/03 11:55:22;;;;;;;14.77;2.95;;;10.10;99.90;;;;;;5070027;28;20098;-69
2024/01/03 11:57:49;;;;;;;19.20;2.88;;;10.20;99.90;;;;;;5070425;28;20052;-70
2024/01/03 12:00:20;;;;;;;16.23;2.75;;;10.50;99.90;;;;;;5070404;28;20065;-69
2024/01/03 12:02:54;;;;;;;13.77;2.83;;;10.60;99.90;;;;;;5069172;28;20049;-71
2024/01/03 12:05:21;;;;;;;12.70;2.45;;;10.50;99.90;;;;;;5069896;28;20051;-71
2024/01/03 12:07:51;;;;;;;14.25;2.90;;;10.80;99.90;;;;;;5068379;28;20106;-70
2024/01/03 12:10:17;;;;;;;20.88;3.13;;;10.70;99.90;;;;;;5069163;28;20128;-70
2024/01/03 12:12:47;;;;;;;20.42;3.30;;;10.80;99.90;;;;;;5071765;28;20044;-71
2024/01/03 12:15:25;;;;;;;15.52;3.10;;;10.70;99.90;;;;;;5070379;28;20052;-72
2024/01/03 12:17:51;;;;;;;13.52;2.70;;;10.60;99.90;;;;;;5057916;28;20044;-69
2024/01/03 12:20:19;;;;;;;12.43;2.45;;;10.60;99.90;;;;;;5069584;28;20051;-69
2024/01/03 12:22:44;;;;;;;9.95;2.28;;;10.30;99.90;;;;;;5070461;28;20162;-69
2024/01/03 12:25:21;;;;;;;13.55;2.38;;;10.80;99.90;;;;;;5069592;28;20123;-70
2024/01/03 12:27:46;;;;;;;;;;;10.20;99.90;;;;;;5070693;28;20480;-73
2024/01/03 12:30:14;;;;;;;10.17;2.37;;;10.00;99.90;;;;;;5069773;28;19927;-72
2024/01/03 12:32:40;;;;;;;11.75;3.03;;;10.10;99.90;;;;;;5069139;28;20051;-72
2024/01/03 12:35:06;;;;;;;13.90;2.53;;;10.30;99.90;;;;;;5069746;28;20411;-73
2024/01/03 12:37:32;;;;;;;15.90;2.75;;;10.20;99.90;;;;;;5067623;28;20053;-70
2024/01/03 12:39:59;;;;;;;10.80;2.67;;;10.10;99.90;;;;;;5068433;28;20131;-72
2024/01/03 12:42:25;;;;;;;13.40;2.13;;;10.30;99.90;;;;;;5070065;28;20040;-71
2024/01/03 12:44:51;;;;;;;11.23;2.20;;;10.50;99.90;;;;;;5068188;28;20070;-69
2024/01/03 12:47:17;;;;;;;8.93;2.33;;;10.40;99.90;;;;;;5069067;28;20416;-75
2024/01/03 12:49:42;;;;;;;8.18;2.10;;;10.50;99.90;;;;;;5069327;28;20059;-74